EBCI Airport Information

Runway Information
Runway 07 Length 8366 ft width 148 ft
Elevation 611 ft Threshold 1477 ft Heading 66
Runway 25 Length 8366 ft Width 148 ft
Elevation 583 ft Threshold 0 ft Heading 246
Airport Frequencies
Type APP Name CHARLEROI Frequency 133.125 MHZ
Type ATIS Name ATIS Frequency 134.625 MHZ
Type GND Name CHARLEROI Frequency 121.8 MHZ
Type TWR Name CHARLEROI Frequency 121.3 MHZ
Airport Navaids
Type VOR-DME Name Gosly Frequency 115700 KHZ
Type NDB Name Charleroi Frequency 323 KHZ
Airport Weather Information & NOTAM
ADDS - METARS form results

(0813 UTC 22 May 2018)
 
METAR text: EBCI 220750Z 27004KT 220V320 CAVOK 19/14 Q1013 NOSIG
Conditions at: EBCI (CHARLEROI/GOSSEL, BE) observed 0750 UTC 22 May 2018
Temperature: 19.0°C (66°F)
Dewpoint: 14.0°C (57°F) [RH = 73%]
Pressure (altimeter): 29.91 inches Hg (1013.0 mb)
Winds: from the W (270 degrees) at 5 MPH (4 knots; 2.1 m/s)
Visibility: 6 or more miles (10+ km)
Ceiling: ceiling and visibility are OK
Clouds: unknown
Weather: no significant weather observed at this time

METAR text: EBCI 220720Z 24005KT CAVOK 17/13 Q1013 NOSIG
Conditions at: EBCI (CHARLEROI/GOSSEL, BE) observed 0720 UTC 22 May 2018
Temperature: 17.0°C (63°F)
Dewpoint: 13.0°C (55°F) [RH = 77%]
Pressure (altimeter): 29.91 inches Hg (1013.0 mb)
Winds: from the WSW (240 degrees) at 6 MPH (5 knots; 2.6 m/s)
Visibility: 6 or more miles (10+ km)
Ceiling: ceiling and visibility are OK
Clouds: unknown
Weather: no significant weather observed at this time